createdAt,value
2022-08-03T00:00:24.376Z,100468.66
2022-08-03T00:03:26.290Z,100462.94
2022-08-03T00:06:28.226Z,100463.44
2022-08-03T00:09:35.429Z,100457.31
2022-08-03T00:12:37.726Z,100453.97
2022-08-03T00:15:40.780Z,100456.94
2022-08-03T00:18:42.666Z,100465.53
2022-08-03T00:21:44.502Z,100464.94
2022-08-03T00:24:46.376Z,100455.16
2022-08-03T00:27:48.548Z,100464.03
2022-08-03T00:30:53.110Z,100472.75
2022-08-03T00:33:59.306Z,100470.09
2022-08-03T00:37:01.872Z,100470.63
2022-08-03T00:40:03.957Z,100467.72
2022-08-03T00:43:08.865Z,100484.53
2022-08-03T00:46:10.805Z,100481.41
2022-08-03T00:49:12.692Z,100482.00
2022-08-03T00:52:14.651Z,100476.50
2022-08-03T00:55:16.458Z,100476.97
2022-08-03T00:58:18.484Z,100482.62
2022-08-03T01:01:20.476Z,100482.62
2022-08-03T01:04:22.396Z,100489.06
2022-08-03T01:07:24.323Z,100490.97
2022-08-03T01:10:29.798Z,100486.12
2022-08-03T01:14:03.973Z,100484.28
2022-08-03T01:17:10.837Z,100490.63
2022-08-03T01:20:13.778Z,100496.09
2022-08-03T01:23:15.696Z,100494.44
2022-08-03T01:26:25.269Z,100495.44
2022-08-03T01:29:46.389Z,100492.41
2022-08-03T01:33:01.016Z,100498.84
2022-08-03T01:36:04.389Z,100491.81
2022-08-03T01:39:09.588Z,100496.94
2022-08-03T01:42:11.562Z,100492.06
2022-08-03T01:45:14.100Z,100502.44
2022-08-03T01:48:16.069Z,100494.87
2022-08-03T01:51:18.649Z,100491.25
2022-08-03T01:54:20.473Z,100496.09
2022-08-03T01:57:22.413Z,100490.41
2022-08-03T02:00:24.404Z,100491.78
2022-08-03T02:03:26.389Z,100491.56
2022-08-03T02:07:02.231Z,100491.31
2022-08-03T02:09:52.017Z,100481.75
2022-08-03T02:12:53.884Z,100488.75
2022-08-03T02:15:55.706Z,100493.56
2022-08-03T02:18:57.630Z,100483.81
2022-08-03T02:22:01.038Z,100497.53
2022-08-03T02:25:03.805Z,100487.50
2022-08-03T02:28:10.964Z,100487.91
2022-08-03T02:31:17.268Z,100489.34
2022-08-03T02:34:19.090Z,100490.41
2022-08-03T02:37:21.122Z,100486.00
2022-08-03T02:40:23.129Z,100492.94
2022-08-03T02:43:24.957Z,100492.13
2022-08-03T02:46:28.804Z,100486.53
2022-08-03T02:49:42.632Z,100502.09
2022-08-03T02:52:53.302Z,100504.41
2022-08-03T02:55:55.550Z,100499.81
2022-08-03T02:58:57.422Z,100498.25
2022-08-03T03:01:59.253Z,100500.84
2022-08-03T03:05:53.360Z,100502.00
2022-08-03T03:08:26.157Z,100497.47
2022-08-03T03:11:30.480Z,100494.34
2022-08-03T03:14:33.234Z,100490.88
2022-08-03T03:17:36.169Z,100489.41
2022-08-03T03:20:38.097Z,100494.00
2022-08-03T03:23:41.324Z,100500.63
2022-08-03T03:26:43.581Z,100502.41
2022-08-03T03:29:45.515Z,100501.13
2022-08-03T03:32:47.439Z,100485.78
2022-08-03T03:35:49.442Z,100503.09
2022-08-03T03:38:51.248Z,100503.69
2022-08-03T03:41:55.675Z,100507.69
2022-08-03T03:44:57.526Z,100509.59
2022-08-03T03:48:01.716Z,100509.38
2022-08-03T03:51:03.637Z,100503.47
2022-08-03T03:54:08.566Z,100503.75
2022-08-03T03:57:13.162Z,100504.31
2022-08-03T04:00:16.774Z,100506.00
2022-08-03T04:03:18.629Z,100501.78
2022-08-03T04:06:38.910Z,100511.63
2022-08-03T04:09:59.263Z,100504.56
2022-08-03T04:13:11.188Z,100517.75
2022-08-03T04:16:13.369Z,100511.34
2022-08-03T04:19:23.077Z,100516.69
2022-08-03T04:22:26.674Z,100523.44
2022-08-03T04:25:30.807Z,100532.16
2022-08-03T04:28:32.843Z,100537.06
2022-08-03T04:31:34.766Z,100528.25
2022-08-03T04:34:36.632Z,100521.81
2022-08-03T04:37:39.572Z,100531.56
2022-08-03T04:40:42.041Z,100532.81
2022-08-03T04:43:43.916Z,100535.63
2022-08-03T04:46:46.763Z,100525.28
2022-08-03T04:49:54.399Z,100542.34
2022-08-03T04:52:56.280Z,100542.75
2022-08-03T04:56:04.093Z,100542.81
2022-08-03T04:59:06.119Z,100540.28
2022-08-03T05:02:08.174Z,100559.34
2022-08-03T05:05:10.094Z,100561.19
2022-08-03T05:08:12.899Z,100556.50
2022-08-03T05:11:15.478Z,100547.84
2022-08-03T05:14:17.322Z,100547.66
2022-08-03T05:17:29.895Z,100556.19
2022-08-03T05:20:32.020Z,100557.78
2022-08-03T05:23:33.932Z,100553.78
2022-08-03T05:26:35.890Z,100563.69
2022-08-03T05:29:37.730Z,100565.00
2022-08-03T05:32:39.639Z,100569.28
2022-08-03T05:35:56.811Z,100570.22
2022-08-03T05:39:03.901Z,100571.47
2022-08-03T05:42:05.957Z,100577.38
2022-08-03T05:45:15.665Z,100566.56
2022-08-03T05:48:17.558Z,100570.94
2022-08-03T05:51:19.626Z,100576.84
2022-08-03T05:54:21.890Z,100576.44
2022-08-03T05:57:44.293Z,100576.94
2022-08-03T06:00:46.793Z,100585.47
2022-08-03T06:03:49.385Z,100581.97
2022-08-03T06:06:51.463Z,100575.53
2022-08-03T06:10:34.149Z,100588.75
2022-08-03T06:13:16.769Z,100585.53
2022-08-03T06:16:18.605Z,100576.88
2022-08-03T06:19:20.692Z,100594.41
2022-08-03T06:22:22.702Z,100598.09
2022-08-03T06:25:29.185Z,100597.84
2022-08-03T06:28:52.548Z,100591.81
2022-08-03T06:31:53.254Z,100596.09
2022-08-03T06:34:55.341Z,100589.28
2022-08-03T06:37:57.308Z,100591.81
2022-08-03T06:40:59.173Z,100589.78
2022-08-03T06:44:03.079Z,100592.72
2022-08-03T06:47:06.327Z,100598.34
2022-08-03T06:50:16.345Z,100596.75
2022-08-03T06:53:19.868Z,100593.28
2022-08-03T06:56:23.418Z,100590.38
2022-08-03T07:00:07.338Z,100582.72
2022-08-03T07:02:47.235Z,100597.09
2022-08-03T07:05:50.074Z,100596.22
2022-08-03T07:08:55.462Z,100596.37
2022-08-03T07:11:59.657Z,100598.56
2022-08-03T07:15:04.104Z,100588.84
2022-08-03T07:18:06.690Z,100589.47
2022-08-03T07:21:10.968Z,100594.34
2022-08-03T07:24:12.915Z,100593.13
2022-08-03T07:27:15.898Z,100592.25
2022-08-03T07:30:17.767Z,100595.12
2022-08-03T07:33:20.187Z,100590.34
2022-08-03T07:36:22.528Z,100582.53
2022-08-03T07:39:24.390Z,100584.66
2022-08-03T07:42:29.201Z,100588.28
2022-08-03T07:45:32.327Z,100574.69
2022-08-03T07:48:34.290Z,100590.91
2022-08-03T07:51:36.241Z,100587.31
2022-08-03T07:54:38.133Z,100581.50
2022-08-03T07:57:40.058Z,100557.72
2022-08-03T08:00:42.229Z,100574.59
2022-08-03T08:03:52.622Z,100582.06
2022-08-03T08:06:55.127Z,100587.59
2022-08-03T08:09:57.099Z,100577.97
2022-08-03T08:12:59.341Z,100581.12
2022-08-03T08:16:01.434Z,100575.72
2022-08-03T08:19:03.567Z,100574.50
2022-08-03T08:22:06.788Z,100570.03
2022-08-03T08:25:09.018Z,100571.78
2022-08-03T08:28:29.417Z,100586.22
2022-08-03T08:31:32.681Z,100578.12
2022-08-03T08:34:34.628Z,100587.66
2022-08-03T08:37:36.824Z,100579.78
2022-08-03T08:40:38.932Z,100567.00
2022-08-03T08:43:40.866Z,100585.66
2022-08-03T08:46:42.865Z,100574.25
2022-08-03T08:50:03.841Z,100571.66
2022-08-03T08:53:09.724Z,100572.03
2022-08-03T08:56:15.573Z,100581.25
2022-08-03T08:59:17.689Z,100563.97
2022-08-03T09:02:20.110Z,100564.06
2022-08-03T09:05:35.784Z,100562.41
2022-08-03T09:08:43.950Z,100557.53
2022-08-03T09:12:00.393Z,100551.41
2022-08-03T09:15:19.034Z,100557.12
2022-08-03T09:18:30.578Z,100550.78
2022-08-03T09:21:35.098Z,100556.59
2022-08-03T09:24:41.613Z,100554.16
2022-08-03T09:27:44.799Z,100555.81
2022-08-03T09:30:58.354Z,100554.12
2022-08-03T09:34:07.316Z,100553.06
2022-08-03T09:37:13.432Z,100553.34
2022-08-03T09:40:15.433Z,100542.00
2022-08-03T09:43:17.668Z,100537.03
2022-08-03T09:46:19.713Z,100544.28
2022-08-03T09:49:21.799Z,100538.63
2022-08-03T09:52:33.873Z,100531.97
2022-08-03T09:56:33.042Z,100525.75
2022-08-03T09:59:12.916Z,100515.56
2022-08-03T10:02:25.343Z,100519.13
2022-08-03T10:05:32.411Z,100510.81
2022-08-03T10:08:34.448Z,100503.91
2022-08-03T10:11:41.385Z,100509.00
2022-08-03T10:14:45.830Z,100515.47
2022-08-03T10:17:47.693Z,100515.00
2022-08-03T10:20:50.430Z,100508.84
2022-08-03T10:23:53.828Z,100494.37
2022-08-03T10:26:59.264Z,100509.25
2022-08-03T10:30:04.590Z,100512.13
2022-08-03T10:33:15.649Z,100499.41
2022-08-03T10:36:30.902Z,100497.19
2022-08-03T10:39:34.693Z,100494.97
2022-08-03T10:42:36.728Z,100488.78
2022-08-03T10:45:41.397Z,100493.22
2022-08-03T10:48:43.537Z,100484.50
2022-08-03T10:51:45.737Z,100482.38
2022-08-03T10:55:07.514Z,100482.66
2022-08-03T10:58:12.604Z,100471.31
2022-08-03T11:01:15.034Z,100470.69
2022-08-03T11:04:17.778Z,100468.31
2022-08-03T11:07:23.937Z,100463.53
2022-08-03T11:10:32.221Z,100455.75
2022-08-03T11:13:34.295Z,100460.56
2022-08-03T11:16:37.928Z,100459.53
2022-08-03T11:19:57.637Z,100446.97
2022-08-03T11:23:01.767Z,100460.81
2022-08-03T11:26:19.605Z,100460.41
2022-08-03T11:29:31.280Z,100456.09
2022-08-03T11:32:48.125Z,100454.19
2022-08-03T11:36:01.173Z,100445.94
2022-08-03T11:39:17.078Z,100443.97
2022-08-03T11:42:22.148Z,100447.81
2022-08-03T11:45:24.264Z,100439.56
2022-08-03T11:48:29.384Z,100432.72
2022-08-03T11:51:32.258Z,100428.19
2022-08-03T11:54:34.279Z,100432.16
2022-08-03T11:59:17.367Z,100427.47
2022-08-03T12:01:05.321Z,100417.34
2022-08-03T12:04:07.347Z,100415.88
2022-08-03T12:07:09.334Z,100415.09
2022-08-03T12:10:12.455Z,100417.66
2022-08-03T12:14:44.982Z,100412.03
2022-08-03T12:16:36.464Z,100413.34
2022-08-03T12:19:42.217Z,100395.06
2022-08-03T12:22:44.460Z,100400.03
2022-08-03T12:25:46.875Z,100398.84
2022-08-03T12:28:49.991Z,100413.66
2022-08-03T12:31:53.035Z,100387.69
2022-08-03T12:34:55.628Z,100391.22
2022-08-03T12:37:58.464Z,100396.06
2022-08-03T12:41:01.324Z,100398.53
2022-08-03T12:44:04.097Z,100390.31
2022-08-03T12:47:06.935Z,100384.03
2022-08-03T12:50:09.020Z,100382.38
2022-08-03T12:53:12.276Z,100372.69
2022-08-03T12:56:14.501Z,100381.16
2022-08-03T12:59:32.177Z,100381.84
2022-08-03T13:02:36.732Z,100380.88
2022-08-03T13:05:45.433Z,100382.78
2022-08-03T13:08:48.268Z,100379.34
2022-08-03T13:12:04.448Z,100385.69
2022-08-03T13:15:10.214Z,100367.09
2022-08-03T13:18:12.273Z,100376.91
2022-08-03T13:21:19.556Z,100365.56
2022-08-03T13:24:21.906Z,100363.97
2022-08-03T13:28:03.533Z,100360.09
2022-08-03T13:30:46.404Z,100357.50
2022-08-03T13:33:48.367Z,100356.38
2022-08-03T13:37:08.400Z,100350.88
2022-08-03T13:40:11.642Z,100341.03
2022-08-03T13:43:13.696Z,100341.53
2022-08-03T13:46:15.684Z,100339.25
2022-08-03T13:49:18.264Z,100337.19
2022-08-03T13:52:20.721Z,100334.47
2022-08-03T13:55:22.858Z,100323.16
2022-08-03T13:58:24.733Z,100324.81
2022-08-03T14:01:54.000Z,100321.28
2022-08-03T14:04:48.619Z,100316.69
2022-08-03T14:07:50.784Z,100321.25
2022-08-03T14:10:55.299Z,100311.19
2022-08-03T14:13:57.235Z,100308.72
2022-08-03T14:16:59.137Z,100317.03
2022-08-03T14:20:01.064Z,100312.03
2022-08-03T14:23:04.421Z,100308.34
2022-08-03T14:26:06.787Z,100301.81
2022-08-03T14:29:08.678Z,100304.03
2022-08-03T14:32:13.479Z,100300.09
2022-08-03T14:35:15.753Z,100295.13
2022-08-03T14:38:17.756Z,100290.91
2022-08-03T14:41:19.748Z,100293.53
2022-08-03T14:44:22.296Z,100289.72
2022-08-03T14:47:24.384Z,100289.09
2022-08-03T14:50:40.561Z,100295.72
2022-08-03T14:53:46.647Z,100291.25
2022-08-03T14:56:49.122Z,100283.56
2022-08-03T14:59:56.081Z,100280.94
2022-08-03T15:02:59.371Z,100285.06
2022-08-03T15:06:01.502Z,100278.66
2022-08-03T15:09:21.353Z,100286.12
2022-08-03T15:12:25.630Z,100282.56
2022-08-03T15:15:27.753Z,100283.66
2022-08-03T15:18:29.811Z,100280.97
2022-08-03T15:21:46.597Z,100277.53
2022-08-03T15:24:50.200Z,100271.84
2022-08-03T15:28:04.155Z,100272.47
2022-08-03T15:31:06.876Z,100263.38
2022-08-03T15:34:08.833Z,100269.72
2022-08-03T15:37:12.771Z,100273.41
2022-08-03T15:40:18.441Z,100268.63
2022-08-03T15:43:23.930Z,100269.53
2022-08-03T15:46:29.960Z,100268.78
2022-08-03T15:49:33.160Z,100277.91
2022-08-03T15:52:36.542Z,100272.06
2022-08-03T15:55:38.451Z,100265.94
2022-08-03T15:59:03.203Z,100267.94
2022-08-03T16:02:02.869Z,100272.19
2022-08-03T16:05:05.770Z,100263.87
2022-08-03T16:08:13.181Z,100268.06
2022-08-03T16:11:16.015Z,100264.09
2022-08-03T16:14:32.548Z,100270.25
2022-08-03T16:17:38.327Z,100264.84
2022-08-03T16:20:40.364Z,100263.75
2022-08-03T16:23:47.252Z,100249.63
2022-08-03T16:26:49.704Z,100264.09
2022-08-03T16:29:51.559Z,100269.44
2022-08-03T16:32:53.537Z,100259.03
2022-08-03T16:35:55.374Z,100263.19
2022-08-03T16:38:57.459Z,100260.28
2022-08-03T16:42:01.119Z,100257.16
2022-08-03T16:45:07.075Z,100255.84
2022-08-03T16:48:09.018Z,100264.59
2022-08-03T16:51:10.903Z,100259.09
2022-08-03T16:54:14.172Z,100270.19
2022-08-03T16:57:16.180Z,100266.41
2022-08-03T17:00:34.451Z,100270.97
2022-08-03T17:03:42.589Z,100264.31
2022-08-03T17:07:00.448Z,100265.28
2022-08-03T17:10:02.474Z,100252.16
2022-08-03T17:13:04.741Z,100279.19
2022-08-03T17:16:07.976Z,100287.78
2022-08-03T17:19:09.912Z,100281.50
2022-08-03T17:22:12.761Z,100281.50
2022-08-03T17:25:22.032Z,100288.00
2022-08-03T17:28:50.494Z,100293.00
2022-08-03T17:31:55.167Z,100294.00
2022-08-03T17:34:57.389Z,100292.88
2022-08-03T17:38:03.458Z,100297.03
2022-08-03T17:41:10.935Z,100301.19
2022-08-03T17:44:37.625Z,100302.72
2022-08-03T17:47:42.477Z,100299.78
2022-08-03T17:51:05.730Z,100295.63
2022-08-03T17:54:18.066Z,100300.84
2022-08-03T17:58:01.441Z,100306.34
2022-08-03T18:02:00.694Z,100301.47
2022-08-03T18:04:40.485Z,100303.62
2022-08-03T18:07:47.876Z,100297.69
2022-08-03T18:10:50.293Z,100306.97
2022-08-03T18:13:59.818Z,100306.16
2022-08-03T18:17:02.659Z,100305.16
2022-08-03T18:20:09.878Z,100314.91
2022-08-03T18:23:25.211Z,100313.72
2022-08-03T18:26:37.489Z,100327.16
2022-08-03T18:29:39.972Z,100314.31
2022-08-03T18:32:42.538Z,100323.69
2022-08-03T18:36:03.383Z,100325.56
2022-08-03T18:39:06.776Z,100330.00
2022-08-03T18:42:08.927Z,100332.44
2022-08-03T18:45:57.123Z,100337.66
2022-08-03T18:48:49.312Z,100342.94
2022-08-03T18:55:21.061Z,100334.84
2022-08-03T18:58:40.789Z,100353.66
2022-08-03T19:02:00.449Z,100345.69
2022-08-03T19:05:07.725Z,100347.31
2022-08-03T19:08:16.930Z,100354.03
2022-08-03T19:11:28.108Z,100361.91
2022-08-03T19:14:31.429Z,100359.59
2022-08-03T19:17:35.032Z,100361.38
2022-08-03T19:20:37.569Z,100355.84
2022-08-03T19:23:39.846Z,100369.28
2022-08-03T19:26:42.743Z,100367.69
2022-08-03T19:29:58.608Z,100368.25
2022-08-03T19:33:03.007Z,100376.34
2022-08-03T19:36:10.467Z,100383.59
2022-08-03T19:39:14.203Z,100374.03
2022-08-03T19:42:22.905Z,100375.25
2022-08-03T19:46:04.403Z,100383.94
2022-08-03T19:49:02.157Z,100387.25
2022-08-03T19:52:07.387Z,100397.22
2022-08-03T19:55:12.455Z,100387.31
2022-08-03T19:58:17.542Z,100390.19
2022-08-03T20:01:26.347Z,100393.94
2022-08-03T20:04:30.666Z,100403.13
2022-08-03T20:07:32.940Z,100410.91
2022-08-03T20:10:34.947Z,100402.59
2022-08-03T20:13:39.108Z,100397.16
2022-08-03T20:16:42.906Z,100395.81
2022-08-03T20:19:44.927Z,100388.41
2022-08-03T20:22:48.211Z,100396.75
2022-08-03T20:26:00.544Z,100397.28
2022-08-03T20:29:09.976Z,100396.50
2022-08-03T20:32:12.427Z,100402.97
2022-08-03T20:35:14.349Z,100401.50
2022-08-03T20:38:16.933Z,100402.41
2022-08-03T20:41:20.661Z,100400.53
2022-08-03T20:44:25.835Z,100405.97
2022-08-03T20:47:27.968Z,100401.28
2022-08-03T20:50:32.661Z,100401.84
2022-08-03T20:53:56.945Z,100401.06
2022-08-03T20:56:56.833Z,100398.09
2022-08-03T20:59:58.815Z,100386.34
2022-08-03T21:03:01.364Z,100397.41
2022-08-03T21:06:06.893Z,100397.41
2022-08-03T21:09:09.771Z,100398.47
2022-08-03T21:12:15.438Z,100407.56
2022-08-03T21:13:09.086Z,100343.78
2022-08-03T21:16:06.547Z,100392.22
2022-08-03T21:18:55.010Z,100408.69
2022-08-03T21:21:57.080Z,100404.59
2022-08-03T21:24:59.084Z,100402.53
2022-08-03T21:28:01.547Z,100414.56
2022-08-03T21:31:03.416Z,100404.13
2022-08-03T21:34:05.390Z,100414.13
2022-08-03T21:37:07.248Z,100415.69
2022-08-03T21:40:12.029Z,100421.75
2022-08-03T21:43:13.989Z,100415.03
2022-08-03T21:46:15.828Z,100432.34
2022-08-03T21:50:07.971Z,100434.75
2022-08-03T21:52:43.301Z,100437.78
2022-08-03T21:55:46.962Z,100436.91
2022-08-03T21:58:52.038Z,100434.84
2022-08-03T22:01:55.422Z,100433.06
2022-08-03T22:05:00.477Z,100429.78
2022-08-03T22:08:07.751Z,100433.84
2022-08-03T22:11:09.896Z,100439.44
2022-08-03T22:14:11.781Z,100436.25
2022-08-03T22:17:13.944Z,100434.84
2022-08-03T22:20:35.804Z,100440.84
2022-08-03T22:23:40.877Z,100443.19
2022-08-03T22:27:02.720Z,100447.22
2022-08-03T22:30:05.991Z,100447.63
2022-08-03T22:33:11.719Z,100449.06
2022-08-03T22:36:14.006Z,100448.41
2022-08-03T22:39:25.708Z,100448.22
2022-08-03T22:42:28.233Z,100453.47
2022-08-03T22:46:06.446Z,100449.31
2022-08-03T22:48:52.135Z,100456.34
2022-08-03T22:51:54.228Z,100447.41
2022-08-03T22:54:56.195Z,100461.34
2022-08-03T22:58:01.656Z,100453.28
2022-08-03T23:01:05.015Z,100464.59
2022-08-03T23:04:07.128Z,100470.16
2022-08-03T23:07:11.736Z,100456.19
2022-08-03T23:10:14.209Z,100468.78
2022-08-03T23:13:19.558Z,100474.47
2022-08-03T23:16:28.724Z,100486.66
2022-08-03T23:19:34.356Z,100488.44
2022-08-03T23:22:43.739Z,100464.41
2022-08-03T23:25:50.109Z,100469.62
2022-08-03T23:28:52.099Z,100480.53
2022-08-03T23:31:54.519Z,100467.47
2022-08-03T23:35:15.625Z,100478.38
2022-08-03T23:38:22.886Z,100487.53
2022-08-03T23:41:25.118Z,100494.81
2022-08-03T23:44:27.364Z,100495.72
2022-08-03T23:47:45.960Z,100491.66
2022-08-03T23:50:50.382Z,100500.22
2022-08-03T23:53:57.632Z,100484.13
2022-08-03T23:57:24.145Z,100460.28
